createdAt,value
2018-09-03T00:02:23.694Z,77.52
2018-09-03T00:04:52.219Z,77.34
2018-09-03T00:07:20.618Z,76.35
2018-09-03T00:09:49.008Z,77.17
2018-09-03T00:12:17.426Z,77.19
2018-09-03T00:14:45.805Z,76.40
2018-09-03T00:17:14.225Z,76.94
2018-09-03T00:19:42.639Z,76.93
2018-09-03T00:22:11.042Z,76.32
2018-09-03T00:24:39.434Z,76.38
2018-09-03T00:27:07.837Z,76.35
2018-09-03T00:29:36.214Z,76.97
2018-09-03T00:32:09.978Z,77.14
2018-09-03T00:37:16.719Z,76.46
2018-09-03T00:39:50.469Z,77.42
2018-09-03T00:43:26.994Z,76.79
2018-09-03T00:46:00.835Z,77.71
2018-09-03T00:48:29.228Z,77.42
2018-09-03T00:50:57.609Z,77.12
2018-09-03T00:53:26.007Z,77.28
2018-09-03T00:55:54.390Z,77.75
2018-09-03T00:58:22.806Z,77.72
2018-09-03T01:00:51.185Z,77.44
2018-09-03T01:03:19.598Z,77.60
2018-09-03T01:05:48.037Z,77.10
2018-09-03T01:08:16.446Z,77.06
2018-09-03T01:10:44.826Z,77.16
2018-09-03T01:13:13.235Z,77.77
2018-09-03T01:15:41.626Z,77.89
2018-09-03T01:18:10.047Z,77.93
2018-09-03T01:20:38.474Z,77.12
2018-09-03T01:23:06.871Z,76.92
2018-09-03T01:25:35.258Z,77.70
2018-09-03T01:28:03.660Z,76.78
2018-09-03T01:30:32.042Z,77.49
2018-09-03T01:33:00.440Z,77.46
2018-09-03T01:35:28.818Z,76.81
2018-09-03T01:37:57.214Z,76.96
2018-09-03T01:40:25.611Z,77.66
2018-09-03T01:42:54.023Z,77.15
2018-09-03T01:45:22.412Z,77.43
2018-09-03T01:47:50.838Z,76.64
2018-09-03T01:50:19.226Z,77.33
2018-09-03T01:52:47.628Z,77.57
2018-09-03T01:55:16.008Z,77.01
2018-09-03T01:57:44.424Z,76.91
2018-09-03T02:00:12.807Z,77.37
2018-09-03T02:02:41.779Z,77.33
2018-09-03T02:05:10.226Z,76.92
2018-09-03T02:07:38.636Z,76.15
2018-09-03T02:10:07.038Z,76.71
2018-09-03T02:12:35.443Z,75.75
2018-09-03T02:15:03.830Z,76.51
2018-09-03T02:17:32.258Z,75.63
2018-09-03T02:20:00.670Z,75.82
2018-09-03T02:22:29.070Z,76.07
2018-09-03T02:24:57.462Z,76.03
2018-09-03T02:27:25.862Z,75.90
2018-09-03T02:29:54.245Z,75.00
2018-09-03T02:32:22.659Z,75.93
2018-09-03T02:34:51.087Z,75.38
2018-09-03T02:37:19.642Z,75.83
2018-09-03T02:39:48.050Z,74.99
2018-09-03T02:42:16.454Z,75.15
2018-09-03T02:44:44.867Z,75.87
2018-09-03T02:47:13.266Z,75.05
2018-09-03T02:49:41.686Z,75.08
2018-09-03T02:52:10.071Z,75.76
2018-09-03T02:54:38.483Z,75.05
2018-09-03T02:57:08.522Z,75.25
2018-09-03T02:59:37.714Z,75.17
2018-09-03T03:02:06.253Z,75.89
2018-09-03T03:04:34.666Z,74.98
2018-09-03T03:07:03.060Z,75.67
2018-09-03T03:09:31.482Z,76.27
2018-09-03T03:11:59.872Z,75.56
2018-09-03T03:14:28.278Z,76.23
2018-09-03T03:16:56.676Z,76.06
2018-09-03T03:19:25.269Z,75.75
2018-09-03T03:21:53.655Z,75.66
2018-09-03T03:24:22.075Z,76.63
2018-09-03T03:26:50.466Z,76.72
2018-09-03T03:29:18.887Z,76.72
2018-09-03T03:31:47.275Z,76.44
2018-09-03T03:34:15.690Z,77.07
2018-09-03T03:36:44.087Z,76.42
2018-09-03T03:39:12.506Z,76.77
2018-09-03T03:41:40.896Z,76.60
2018-09-03T03:44:09.310Z,76.85
2018-09-03T03:46:37.701Z,76.78
2018-09-03T03:49:06.272Z,77.45
2018-09-03T03:51:34.671Z,77.08
2018-09-03T03:54:03.087Z,76.97
2018-09-03T03:56:31.530Z,77.10
2018-09-03T03:59:00.012Z,78.18
2018-09-03T04:01:28.403Z,78.24
2018-09-03T04:03:56.814Z,78.34
2018-09-03T04:06:25.207Z,77.52
2018-09-03T04:08:53.611Z,78.12
2018-09-03T04:11:22.021Z,77.45
2018-09-03T04:13:50.427Z,77.80
2018-09-03T04:16:18.821Z,78.66
2018-09-03T04:18:47.263Z,78.36
2018-09-03T04:21:15.654Z,79.08
2018-09-03T04:23:44.067Z,77.90
2018-09-03T04:26:13.381Z,78.07
2018-09-03T04:28:41.828Z,77.56
2018-09-03T04:31:10.315Z,78.63
2018-09-03T04:33:38.808Z,78.48
2018-09-03T04:36:07.224Z,77.96
2018-09-03T04:38:35.663Z,78.18
2018-09-03T04:41:04.054Z,78.01
2018-09-03T04:43:32.513Z,78.06
2018-09-03T04:46:01.650Z,78.07
2018-09-03T04:48:30.051Z,79.05
2018-09-03T04:50:58.476Z,79.34
2018-09-03T04:53:26.878Z,78.27
2018-09-03T04:55:55.292Z,78.91
2018-09-03T04:58:23.680Z,79.08
2018-09-03T05:00:52.099Z,77.76
2018-09-03T05:03:20.503Z,77.67
2018-09-03T05:05:48.985Z,77.56
2018-09-03T05:08:17.326Z,77.51
2018-09-03T05:10:45.739Z,76.97
2018-09-03T05:13:14.131Z,77.73
2018-09-03T05:15:42.549Z,77.48
2018-09-03T05:18:10.943Z,77.52
2018-09-03T05:20:39.431Z,77.13
2018-09-03T05:23:07.826Z,77.21
2018-09-03T05:25:36.242Z,76.44
2018-09-03T05:28:04.638Z,76.61
2018-09-03T05:30:33.059Z,76.90
2018-09-03T05:33:01.459Z,76.35
2018-09-03T05:35:29.877Z,76.71
2018-09-03T05:37:58.274Z,76.13
2018-09-03T05:40:26.687Z,76.70
2018-09-03T05:42:55.085Z,76.76
2018-09-03T05:45:23.531Z,75.80
2018-09-03T05:47:51.918Z,75.90
2018-09-03T05:50:20.392Z,76.29
2018-09-03T05:52:48.759Z,75.76
2018-09-03T05:55:17.173Z,75.53
2018-09-03T05:57:45.566Z,75.32
2018-09-03T06:00:13.977Z,75.85
2018-09-03T06:02:42.582Z,75.42
2018-09-03T06:05:11.003Z,75.25
2018-09-03T06:07:40.787Z,75.10
2018-09-03T06:10:09.226Z,74.83
2018-09-03T06:12:38.167Z,74.41
2018-09-03T06:15:06.712Z,75.15
2018-09-03T06:17:35.091Z,74.17
2018-09-03T06:20:03.527Z,74.31
2018-09-03T06:22:31.919Z,73.88
2018-09-03T06:25:00.336Z,74.29
2018-09-03T06:27:28.734Z,73.76
2018-09-03T06:29:57.193Z,73.97
2018-09-03T06:32:25.808Z,73.79
2018-09-03T06:34:54.226Z,72.77
2018-09-03T06:37:22.610Z,72.78
2018-09-03T06:39:51.031Z,72.63
2018-09-03T06:42:19.417Z,72.39
2018-09-03T06:44:47.981Z,72.21
2018-09-03T06:47:16.374Z,72.20
2018-09-03T06:49:44.774Z,72.14
2018-09-03T06:52:13.194Z,72.22
2018-09-03T06:54:41.703Z,70.95
2018-09-03T06:57:10.119Z,71.58
2018-09-03T06:59:38.600Z,71.33
2018-09-03T07:02:07.670Z,70.52
2018-09-03T07:04:36.268Z,70.43
2018-09-03T07:07:04.807Z,70.42
2018-09-03T07:09:33.207Z,71.13
2018-09-03T07:12:01.663Z,70.55
2018-09-03T07:14:30.171Z,70.73
2018-09-03T07:16:58.575Z,70.21
2018-09-03T07:19:27.259Z,70.42
2018-09-03T07:21:55.678Z,69.67
2018-09-03T07:24:24.070Z,69.56
2018-09-03T07:26:52.502Z,69.35
2018-09-03T07:29:20.902Z,69.21
2018-09-03T07:31:49.315Z,69.71
2018-09-03T07:34:17.709Z,69.67
2018-09-03T07:36:46.123Z,69.38
2018-09-03T07:39:14.515Z,69.04
2018-09-03T07:41:42.937Z,68.10
2018-09-03T07:44:11.384Z,68.31
2018-09-03T07:46:39.763Z,67.39
2018-09-03T07:49:08.202Z,67.63
2018-09-03T07:51:36.610Z,66.96
2018-09-03T07:54:05.006Z,65.57
2018-09-03T07:56:33.427Z,66.33
2018-09-03T07:59:01.818Z,65.39
2018-09-03T08:01:30.346Z,65.27
2018-09-03T08:03:58.782Z,64.21
2018-09-03T08:06:27.198Z,64.32
2018-09-03T08:08:55.587Z,63.55
2018-09-03T08:11:24.006Z,64.08
2018-09-03T08:13:52.405Z,63.41
2018-09-03T08:16:20.819Z,63.54
2018-09-03T08:18:49.243Z,63.32
2018-09-03T08:21:17.664Z,63.35
2018-09-03T08:23:46.058Z,64.04
2018-09-03T08:26:14.463Z,63.72
2018-09-03T08:28:42.847Z,63.68
2018-09-03T08:31:11.252Z,62.82
2018-09-03T08:33:39.640Z,62.53
2018-09-03T08:36:08.124Z,62.75
2018-09-03T08:38:36.513Z,62.04
2018-09-03T08:41:04.927Z,61.89
2018-09-03T08:43:33.312Z,61.04
2018-09-03T08:46:01.825Z,62.07
2018-09-03T08:48:30.215Z,61.14
2018-09-03T08:50:58.599Z,61.04
2018-09-03T08:53:27.006Z,60.79
2018-09-03T08:55:55.411Z,60.09
2018-09-03T08:58:23.818Z,60.64
2018-09-03T09:00:52.224Z,60.69
2018-09-03T09:03:26.075Z,60.34
2018-09-03T09:05:54.527Z,60.16
2018-09-03T09:08:22.898Z,60.27
2018-09-03T09:10:51.286Z,59.58
2018-09-03T09:13:20.410Z,59.77
2018-09-03T09:15:49.313Z,59.94
2018-09-03T09:18:17.991Z,58.90
2018-09-03T09:20:46.651Z,59.85
2018-09-03T09:23:15.463Z,58.74
2018-09-03T09:25:43.847Z,58.44
2018-09-03T09:28:12.344Z,58.63
2018-09-03T09:30:40.747Z,58.00
2018-09-03T09:33:09.395Z,58.03
2018-09-03T09:35:37.817Z,58.66
2018-09-03T09:38:06.402Z,58.41
2018-09-03T09:40:34.846Z,57.88
2018-09-03T09:43:03.372Z,58.50
2018-09-03T09:45:31.747Z,56.63
2018-09-03T09:48:00.154Z,56.52
2018-09-03T09:50:28.766Z,56.84
2018-09-03T09:52:57.201Z,56.39
2018-09-03T09:55:25.591Z,56.06
2018-09-03T09:57:54.007Z,56.65
2018-09-03T10:00:27.710Z,56.34
2018-09-03T10:02:56.126Z,55.83
2018-09-03T10:05:24.531Z,55.39
2018-09-03T10:07:52.939Z,55.97
2018-09-03T10:10:21.328Z,55.87
2018-09-03T10:12:49.760Z,55.83
2018-09-03T10:15:18.163Z,54.88
2018-09-03T10:17:46.627Z,55.57
2018-09-03T10:20:15.039Z,54.48
2018-09-03T10:22:43.551Z,54.46
2018-09-03T10:25:11.934Z,54.48
2018-09-03T10:27:40.343Z,54.37
2018-09-03T10:30:08.767Z,53.19
2018-09-03T10:32:37.195Z,53.26
2018-09-03T10:35:05.763Z,53.61
2018-09-03T10:37:34.179Z,53.93
2018-09-03T10:40:02.621Z,53.45
2018-09-03T10:42:31.043Z,52.33
2018-09-03T10:44:59.443Z,51.81
2018-09-03T10:47:27.921Z,51.58
2018-09-03T10:49:56.263Z,52.12
2018-09-03T10:52:24.674Z,51.51
2018-09-03T10:54:53.087Z,50.84
2018-09-03T10:57:21.487Z,51.68
2018-09-03T10:59:49.917Z,51.68
2018-09-03T11:02:18.315Z,50.50
2018-09-03T11:04:46.735Z,50.96
2018-09-03T11:07:15.132Z,50.83
2018-09-03T11:09:43.558Z,50.71
2018-09-03T11:12:12.518Z,48.99
2018-09-03T11:14:40.934Z,49.01
2018-09-03T11:17:09.331Z,49.38
2018-09-03T11:19:42.123Z,50.08
2018-09-03T11:22:10.514Z,48.92
2018-09-03T11:24:38.927Z,48.76
2018-09-03T11:27:07.334Z,49.25
2018-09-03T11:29:35.914Z,48.58
2018-09-03T11:32:04.584Z,48.41
2018-09-03T11:34:33.002Z,47.60
2018-09-03T11:37:01.398Z,46.77
2018-09-03T11:39:29.828Z,46.71
2018-09-03T11:41:58.230Z,46.40
2018-09-03T11:44:26.642Z,46.94
2018-09-03T11:46:55.036Z,46.98
2018-09-03T11:49:23.455Z,46.57
2018-09-03T11:51:51.847Z,46.84
2018-09-03T11:54:20.267Z,46.72
2018-09-03T11:56:48.655Z,47.04
2018-09-03T11:59:17.067Z,46.33
2018-09-03T12:01:45.463Z,46.32
2018-09-03T12:04:13.893Z,45.73
2018-09-03T12:06:42.315Z,45.51
2018-09-03T12:09:11.524Z,45.54
2018-09-03T12:11:39.927Z,45.81
2018-09-03T12:14:11.051Z,46.27
2018-09-03T12:16:39.463Z,45.40
2018-09-03T12:19:07.903Z,46.48
2018-09-03T12:21:36.295Z,46.60
2018-09-03T12:24:04.731Z,46.51
2018-09-03T12:26:33.114Z,46.93
2018-09-03T12:29:01.515Z,47.55
2018-09-03T12:31:29.896Z,47.36
2018-09-03T12:33:58.512Z,45.80
2018-09-03T12:36:26.919Z,46.05
2018-09-03T12:38:55.333Z,46.80
2018-09-03T12:41:23.789Z,47.13
2018-09-03T12:43:52.202Z,47.03
2018-09-03T12:46:20.630Z,46.45
2018-09-03T12:48:49.055Z,46.87
2018-09-03T12:51:17.477Z,46.19
2018-09-03T12:53:45.895Z,46.75
2018-09-03T12:56:14.306Z,46.00
2018-09-03T12:58:42.747Z,46.28
2018-09-03T13:01:11.146Z,46.78
2018-09-03T13:03:39.530Z,46.76
2018-09-03T13:06:07.970Z,46.92
2018-09-03T13:08:36.374Z,46.26
2018-09-03T13:11:04.797Z,46.41
2018-09-03T13:13:33.203Z,47.54
2018-09-03T13:16:01.627Z,47.31
2018-09-03T13:18:30.060Z,46.67
2018-09-03T13:20:58.502Z,46.71
2018-09-03T13:23:26.891Z,46.93
2018-09-03T13:25:55.307Z,46.95
2018-09-03T13:28:23.698Z,47.44
2018-09-03T13:30:52.179Z,46.75
2018-09-03T13:33:20.535Z,46.66
2018-09-03T13:35:48.938Z,47.71
2018-09-03T13:38:17.318Z,47.49
2018-09-03T13:40:45.742Z,47.32
2018-09-03T13:43:14.315Z,47.41
2018-09-03T13:45:42.926Z,47.16
2018-09-03T13:48:11.332Z,47.65
2018-09-03T13:50:39.747Z,47.45
2018-09-03T13:53:08.221Z,46.76
2018-09-03T13:55:36.631Z,47.07
2018-09-03T13:58:05.023Z,48.03
2018-09-03T14:00:33.435Z,46.87
2018-09-03T14:03:01.832Z,48.03
2018-09-03T14:05:30.243Z,48.54
2018-09-03T14:07:58.631Z,48.61
2018-09-03T14:10:27.042Z,49.75
2018-09-03T14:12:55.437Z,48.36
2018-09-03T14:15:23.983Z,49.46
2018-09-03T14:17:52.425Z,49.89
2018-09-03T14:20:20.854Z,49.22
2018-09-03T14:22:49.244Z,49.95
2018-09-03T14:25:17.654Z,50.66
2018-09-03T14:27:46.043Z,50.50
2018-09-03T14:30:14.454Z,51.26
2018-09-03T14:32:42.843Z,51.02
2018-09-03T14:35:11.292Z,50.26
2018-09-03T14:37:39.683Z,51.71
2018-09-03T14:40:08.850Z,50.92
2018-09-03T14:42:37.262Z,51.09
2018-09-03T14:45:06.051Z,52.31
2018-09-03T14:47:34.454Z,52.30
2018-09-03T14:50:03.040Z,51.58
2018-09-03T14:52:31.474Z,51.63
2018-09-03T14:54:59.907Z,52.62
2018-09-03T14:57:28.335Z,52.29
2018-09-03T14:59:56.817Z,53.03
2018-09-03T15:02:25.306Z,53.08
2018-09-03T15:04:53.655Z,53.48
2018-09-03T15:07:22.077Z,53.44
2018-09-03T15:09:50.482Z,52.57
2018-09-03T15:12:18.902Z,53.37
2018-09-03T15:14:47.300Z,53.39
2018-09-03T15:17:15.721Z,52.80
2018-09-03T15:19:44.139Z,52.85
2018-09-03T15:22:12.560Z,53.17
2018-09-03T15:24:41.320Z,54.60
2018-09-03T15:27:09.728Z,53.88
2018-09-03T15:29:38.119Z,54.53
2018-09-03T15:32:06.548Z,53.63
2018-09-03T15:34:34.931Z,53.96
2018-09-03T15:37:03.330Z,54.11
2018-09-03T15:39:31.718Z,54.69
2018-09-03T15:42:00.148Z,54.72
2018-09-03T15:44:28.538Z,54.71
2018-09-03T15:46:56.954Z,55.00
2018-09-03T15:49:25.382Z,55.47
2018-09-03T15:51:53.804Z,56.86
2018-09-03T15:54:22.190Z,56.53
2018-09-03T15:56:50.609Z,57.17
2018-09-03T15:59:19.015Z,56.31
2018-09-03T16:01:47.460Z,56.28
2018-09-03T16:04:15.846Z,56.86
2018-09-03T16:06:44.285Z,57.65
2018-09-03T16:09:12.828Z,57.25
2018-09-03T16:11:41.252Z,58.23
2018-09-03T16:14:10.062Z,57.91
2018-09-03T16:16:38.519Z,58.50
2018-09-03T16:19:06.972Z,58.98
2018-09-03T16:21:35.386Z,59.56
2018-09-03T16:24:03.778Z,59.30
2018-09-03T16:26:32.267Z,59.78
2018-09-03T16:29:00.665Z,60.33
2018-09-03T16:31:29.188Z,60.39
2018-09-03T16:33:57.583Z,60.53
2018-09-03T16:36:26.036Z,60.22
2018-09-03T16:38:54.518Z,60.36
2018-09-03T16:41:22.883Z,61.15
2018-09-03T16:43:51.271Z,60.86
2018-09-03T16:46:19.745Z,61.41
2018-09-03T16:48:48.258Z,62.14
2018-09-03T16:51:16.737Z,61.60
2018-09-03T16:53:45.379Z,62.64
2018-09-03T16:56:13.880Z,62.13
2018-09-03T16:58:43.223Z,62.54
2018-09-03T17:01:11.727Z,63.01
2018-09-03T17:03:40.460Z,63.58
2018-09-03T17:06:08.844Z,63.15
2018-09-03T17:08:37.319Z,64.24
2018-09-03T17:11:05.707Z,64.17
2018-09-03T17:13:34.277Z,63.89
2018-09-03T17:16:03.034Z,63.88
2018-09-03T17:18:31.483Z,64.88
2018-09-03T17:20:59.990Z,64.60
2018-09-03T17:23:28.502Z,65.61
2018-09-03T17:25:57.175Z,65.90
2018-09-03T17:28:25.587Z,66.25
2018-09-03T17:30:53.983Z,65.68
2018-09-03T17:33:22.396Z,65.88
2018-09-03T17:35:50.787Z,66.03
2018-09-03T17:38:19.234Z,67.07
2018-09-03T17:40:47.619Z,67.00
2018-09-03T17:43:16.026Z,67.48
2018-09-03T17:45:44.518Z,67.81
2018-09-03T17:48:12.922Z,68.26
2018-09-03T17:50:42.191Z,68.46
2018-09-03T17:53:10.606Z,67.87
2018-09-03T17:55:39.035Z,68.84
2018-09-03T17:58:07.447Z,68.17
2018-09-03T18:00:35.844Z,69.33
2018-09-03T18:03:04.254Z,69.55
2018-09-03T18:05:32.655Z,69.37
2018-09-03T18:08:01.063Z,69.30
2018-09-03T18:10:29.461Z,70.29
2018-09-03T18:12:57.875Z,70.02
2018-09-03T18:15:26.298Z,70.60
2018-09-03T18:17:54.727Z,71.11
2018-09-03T18:20:23.135Z,71.31
2018-09-03T18:22:51.560Z,70.79
2018-09-03T18:25:19.947Z,71.81
2018-09-03T18:27:48.383Z,72.00
2018-09-03T18:30:17.003Z,72.24
2018-09-03T18:32:45.416Z,72.59
2018-09-03T18:35:13.807Z,72.80
2018-09-03T18:37:42.284Z,72.22
2018-09-03T18:40:10.675Z,72.93
2018-09-03T18:42:39.092Z,73.53
2018-09-03T18:45:08.618Z,73.80
2018-09-03T18:47:37.024Z,74.01
2018-09-03T18:50:05.887Z,73.76
2018-09-03T18:52:34.364Z,73.67
2018-09-03T18:55:02.751Z,73.91
2018-09-03T18:57:31.164Z,74.55
2018-09-03T18:59:59.590Z,74.23
2018-09-03T19:02:28.070Z,74.29
2018-09-03T19:04:56.504Z,74.47
2018-09-03T19:07:24.943Z,74.55
2018-09-03T19:09:53.459Z,74.91
2018-09-03T19:12:21.788Z,75.79
2018-09-03T19:14:50.226Z,75.48
2018-09-03T19:17:18.618Z,75.59
2018-09-03T19:19:47.076Z,76.22
2018-09-03T19:22:15.525Z,75.75
2018-09-03T19:24:44.096Z,76.74
2018-09-03T19:27:12.493Z,76.83
2018-09-03T19:29:40.906Z,76.36
2018-09-03T19:32:09.299Z,76.63
2018-09-03T19:34:37.712Z,77.56
2018-09-03T19:37:06.137Z,77.56
2018-09-03T19:39:34.546Z,78.01
2018-09-03T19:42:02.943Z,78.23
2018-09-03T19:44:31.387Z,77.55
2018-09-03T19:46:59.799Z,77.62
2018-09-03T19:49:28.212Z,78.43
2018-09-03T19:51:56.654Z,78.10
2018-09-03T19:54:25.059Z,78.10
2018-09-03T19:56:53.451Z,78.89
2018-09-03T19:59:21.863Z,79.19
2018-09-03T20:01:50.294Z,78.47
2018-09-03T20:04:18.711Z,79.24
2018-09-03T20:06:47.116Z,78.96
2018-09-03T20:09:15.530Z,79.89
2018-09-03T20:11:43.969Z,80.09
2018-09-03T20:14:12.383Z,79.75
2018-09-03T20:16:40.771Z,80.17
2018-09-03T20:19:09.203Z,80.50
2018-09-03T20:21:37.664Z,79.89
2018-09-03T20:24:06.082Z,80.82
2018-09-03T20:26:34.519Z,80.68
2018-09-03T20:29:02.935Z,81.40
2018-09-03T20:31:31.315Z,80.98
2018-09-03T20:33:59.734Z,81.38
2018-09-03T20:36:28.195Z,80.90
2018-09-03T20:38:56.558Z,81.57
2018-09-03T20:41:24.942Z,81.36
2018-09-03T20:43:53.367Z,80.62
2018-09-03T20:46:21.822Z,81.43
2018-09-03T20:48:50.215Z,81.50
2018-09-03T20:51:18.627Z,81.15
2018-09-03T20:53:47.038Z,81.26
2018-09-03T20:56:15.431Z,81.22
2018-09-03T20:58:43.834Z,80.89
2018-09-03T21:01:12.259Z,80.45
2018-09-03T21:03:40.655Z,81.09
2018-09-03T21:06:09.099Z,81.01
2018-09-03T21:08:37.470Z,80.35
2018-09-03T21:11:06.046Z,80.18
2018-09-03T21:13:34.598Z,81.03
2018-09-03T21:16:03.198Z,80.14
2018-09-03T21:18:31.636Z,80.95
2018-09-03T21:21:00.054Z,81.09
2018-09-03T21:23:28.431Z,81.08
2018-09-03T21:25:56.834Z,81.21
2018-09-03T21:28:25.266Z,80.54
2018-09-03T21:30:53.643Z,81.29
2018-09-03T21:33:22.016Z,80.95
2018-09-03T21:35:50.542Z,81.01
2018-09-03T21:38:18.926Z,81.32
2018-09-03T21:40:47.346Z,80.93
2018-09-03T21:43:15.733Z,81.10
2018-09-03T21:45:44.138Z,81.66
2018-09-03T21:48:12.522Z,81.54
2018-09-03T21:50:40.951Z,81.87
2018-09-03T21:53:09.331Z,81.75
2018-09-03T21:55:37.736Z,81.84
2018-09-03T21:58:06.115Z,81.93
2018-09-03T22:00:34.598Z,81.97
2018-09-03T22:03:02.978Z,82.10
2018-09-03T22:05:31.391Z,82.07
2018-09-03T22:07:59.793Z,82.24
2018-09-03T22:10:28.224Z,82.74
2018-09-03T22:12:56.602Z,82.79
2018-09-03T22:15:25.010Z,82.72
2018-09-03T22:17:53.390Z,82.61
2018-09-03T22:20:21.810Z,83.45
2018-09-03T22:22:50.204Z,83.15
2018-09-03T22:25:18.606Z,83.20
2018-09-03T22:27:46.978Z,83.43
2018-09-03T22:30:15.386Z,83.95
2018-09-03T22:32:43.841Z,84.18
2018-09-03T22:35:12.235Z,83.43
2018-09-03T22:37:40.613Z,83.91
2018-09-03T22:40:09.011Z,84.62
2018-09-03T22:42:37.391Z,84.19
2018-09-03T22:45:05.790Z,84.25
2018-09-03T22:47:34.183Z,84.58
2018-09-03T22:50:02.586Z,84.49
2018-09-03T22:52:30.965Z,84.24
2018-09-03T22:54:59.387Z,83.70
2018-09-03T22:57:27.765Z,83.89
2018-09-03T22:59:56.125Z,84.24
2018-09-03T23:02:24.520Z,84.55
2018-09-03T23:04:53.091Z,83.41
2018-09-03T23:07:21.491Z,84.13
2018-09-03T23:09:49.858Z,83.93
2018-09-03T23:12:18.254Z,84.07
2018-09-03T23:14:46.626Z,84.59
2018-09-03T23:17:15.035Z,84.65
2018-09-03T23:19:43.430Z,84.46
2018-09-03T23:22:11.823Z,83.71
2018-09-03T23:24:40.206Z,84.33
2018-09-03T23:27:08.608Z,83.93
2018-09-03T23:29:36.986Z,83.89
2018-09-03T23:32:05.382Z,84.58
2018-09-03T23:34:33.759Z,84.75
2018-09-03T23:37:02.158Z,84.52
2018-09-03T23:39:30.554Z,84.34
2018-09-03T23:41:58.951Z,84.87
2018-09-03T23:44:27.358Z,84.88
2018-09-03T23:46:55.755Z,85.27
2018-09-03T23:49:24.131Z,84.84
2018-09-03T23:51:52.523Z,84.67
2018-09-03T23:54:20.906Z,84.51
2018-09-03T23:56:49.307Z,85.01
2018-09-03T23:59:17.683Z,84.59
